Pattonsburg, Missouri
Current Conditions -  °F | °C
As of 8:53 AM on Thursday 18 Dec 2014 (Local Time) from KLWD Reporting Station
Light Snow Light Snow  
Wind Chill: 17°   Ceiling: 2000
Heat Index: 24°   Visibility: 1mi
Dew Point: 22°   Wind: 6mph
Humidity: 91%   Direction: 70°ENE
Pressure: 30.25"   Gusts: NA
Location:  40.05°N, 94.14°W
Report Text: KLWD 181453Z AUTO 07005KT 1SM -SN BR FEW005 OVC020 M04/M06 A3025 RMK AO2 SLP260 P0002 60006 T10441056 53004
Loading
Personal Weather Stations






























Interactive Weather Map New forecast layout! Learn more

10-Day Weather Forecast

Advertisements
Track Severe Weather on mobile